FBSK

Details ICAO FBSK (GBE)
Name Gaborone International Airport Sir Sereste Khama
Region Botswana
Timezone Africa/Gaborone (UTC+2.0)
Plans Departing 139
Arriving 151
Stats Elevation 3,298 ft / 1,005 m (AMSL)
Location -24.553100° 25.922800°
Runways 1
Magnetic Variation 15.778° W
Sunrise 2019-08-24 04:37:25 UTC / 2019-08-24 06:37:25 Local
Sunset 2019-08-24 16:03:13 UTC / 2019-08-24 18:03:13 Local
Advertisement - Login to hide

Runways

ID Width Length Bearing (true/mag) Surface Threshold Overrun Markings Lighting
08 148 ft / 45 m 13,124 ft / 4,000 m 61.48° / 77.26° CONCRETE 0 ft / 0 m 0 ft / 0 m PREC-APP EDGE THRESHOLD ALSF-II
26 148 ft / 45 m 13,124 ft / 4,000 m 241.47° / 257.25° CONCRETE 0 ft / 0 m 0 ft / 0 m PREC-APP EDGE THRESHOLD MALS

Map

Weather


0- 5 10 15 20 25 30 35+ Temperature / °C

Clouds and Precipitation
Forecast for 2019-08-24 18:00 UTC. Updated 5 hours ago

Ground ~20,000 ft ~40,000 ft Winds

METAR

FBSK 242000Z 22003KT 130V270 CAVOK 15/M05 Q1026 NOSIG

TAF

TAF FBSK 241500Z 2418/2524 27005KT CAVOK

Frequencies

Recorded 126.60 MHz ATIS
Tower 118.30 MHz Khama Tower
Ground 121.90 MHz Khama Ground
Approach 128.20 MHz Gaborone Approach
Warning: Do not use this data for real-world aviation or navigation. No guarantee of current accuracy is given.